South Woodstock, VT (05071)

6:43 PM EDT on August 27, 2014 (GMT -0400)
Suicide Six Ski Area | Change Station
CLOSE
Current Station
Personal Weather Station
Location: South Pomfret, VT
Elevation: 850 ft
Nearby Weather Stations

Elev 850 ft 43.68 °N, 72.56 °W | Updated 5 seconds ago

Mostly Cloudy
Mostly Cloudy
75.2 °F
Feels Like 75 °F
N
1.0
Wind Variable Wind from NNW
Gusts 6.0 mph

Today
High -- | Low -- °F
--% Chance of Precip.
Yesterday
High -- | Low -- °F
Precip. -- in
6:08 AM 7:34 PM
Waxing Crescent, 5% visible
Pressure 29.82 in
Visibility 10.0 miles
Clouds Few 7500 ft
Heat Index 75 °F
Dew Point 70 °F
Humidity 84%
Rainfall 0.00 in
Snow Depth Not available.
UV 1 out of 12
Pollen 8.20 out of 12
Ozone Good
PM2.5 Good
Flu Activity Not available.
METAR KLEB 272153Z 24009KT 10SM FEW075 29/18 A2985 RMK AO2 LTG DSNT NW SLP097 T02890178

More Conditions Fewer Conditions

Pressure 29.82 in
Visibility 10.0 miles
Clouds Few 7500 ft
Heat Index 75 °F
Dew Point 70 °F
Humidity 84%
Rainfall 0.00 in
Snow Depth Not available.
UV 1 out of 12
Pollen 8.20 out of 12
Ozone Good
PM2.5 Good
Flu Activity Not available.
METAR KLEB 272153Z 24009KT 10SM FEW075 29/18 A2985 RMK AO2 LTG DSNT NW SLP097 T02890178

More Conditions Fewer Conditions

10-Day Weather Forecast

Almanac

Astronomy

Aug. 27, 2014 Rise Set
Actual Time 6:08 AM EDT 7:34 PM EDT
Civil Twilight 5:38 AM EDT 8:03 PM EDT
Nautical Twilight 5:02 AM EDT 8:39 PM EDT
Astronomical Twilight 4:23 AM EDT 9:18 PM EDT
Moon 8:06 AM EDT 8:19 PM EDT
Length of Visible Light 14h 25m
Length of Day
13h 25m
Tomorrow will be 2m 50s shorter.
Waxing Crescent, 5% of the Moon is Illuminated
Today
Waxing Crescent
Sep 2
First Quarter
Sep 8
Full
Sep 15
Last Quarter
Sep 24
New

Today's Extremes

State Highs State Lows

Community

WunderPhotos

Upload Photos

1,747,805 photos uploaded!

Nearby

Air Quality

  Air Quality AQ Index Pollutant
Yesterday Good
OZONE
Yesterday Good
PM2.5
Current Good
PM2.5
Current Good
OZONE
Wednesday Good
PM2.5
Thursday Good
PM2.5
Friday Good
PM2.5

Snow Depth

Station Depth Elevation
No new snow has been reported.

Earthquake Activity

City Distance Mag. Time & Date
No recent earthquake activity has been reported nearby.
Minimum magnitude displayed is 2.5.

Coastal Water Temperatures

Place Temperature
No Stations Reporting

Nearby Weather Stations